SBOSBO DBV / LDDU
Speedbird OnlineSpeedbird Online DBV / LDDU

Dubrovnik Airport
11:32 28°C

Location Dubrovnik, Croatia
Latitude: 42.5614013671875
Longitude: 18.268199920654297
Local Time 11:32 on 17 Jun 2024
UTC +2 hours (Europe/Zagreb)
Currency £1 equals HRK 8.91
METAR LDDU 170930Z 28007KT 210V340 CAVOK 28/13 Q1016 NOSIG
TAF TAF LDDU 170525Z 1706/1806 08006KT CAVOK TX28/1714Z TN19/1803Z BECMG 1708/1710 29008KT BECMG 1717/1719 08005KT
Weather As Of 17 Jun 2024 11:32
Description Clear sky
Wind 9 km/h from West (270°)
Cloud Cover 0%
Precipitation Rain: none, Snow: none
Sunrise 05:08
Sunset 20:26
NOTAM 9 active NOTAM
Rotations During the last 90 days there were
69 flights from LGW
28 flights from LHR
77 flights to LGW
29 flights to LHR
Lounges Airport Business Lounge , International Departures
Web Wikipedia
Codes IATA: DBV
ICAO: LDDU
Altitude 161 Meter / 527 Feet
Distance 1,690 KM / 1,050 Miles
from London.
Runways
RunwayLength (m)Surface
113300Asphalt
293300Asphalt
Radio
TypeDescriptionFrequency
APPAPP123.6
TWRTWR129.5
Live ATC



Support Speedbird Online

© 2017-2024 Speedbird Online